createdAt,value
2022-10-18T11:00:47.849Z,22.40
2022-10-18T11:11:10.869Z,18.50
2022-10-18T11:21:35.876Z,16.60
2022-10-18T11:32:21.885Z,13.20
2022-10-18T11:42:50.905Z,14.30
2022-10-18T11:53:21.893Z,16.10
2022-10-18T12:03:58.902Z,14.10
2022-10-18T12:14:19.927Z,15.30
2022-10-18T12:24:36.937Z,15.00
2022-10-18T12:34:54.948Z,13.80
2022-10-18T12:45:32.950Z,17.40
2022-10-18T12:55:55.956Z,11.40
2022-10-18T13:06:08.966Z,17.00
2022-10-18T13:16:30.957Z,17.70
2022-10-18T13:27:31.078Z,17.40
2022-10-18T13:37:41.981Z,15.60
2022-10-18T13:48:02.007Z,20.70
2022-10-18T13:58:15.025Z,17.20
2022-10-18T14:08:32.002Z,17.80
2022-10-18T14:18:48.032Z,18.90
2022-10-18T14:29:13.098Z,16.30
2022-10-18T14:39:32.035Z,17.80
2022-10-18T14:49:54.042Z,19.10
2022-10-18T15:00:10.040Z,17.40
2022-10-18T15:10:26.067Z,21.20
2022-10-18T15:20:41.057Z,20.20
2022-10-18T15:30:54.084Z,18.70
2022-10-18T15:41:06.070Z,21.35
2022-10-18T15:52:07.096Z,21.70
2022-10-18T16:02:21.103Z,25.10
2022-10-18T16:12:34.087Z,22.20
2022-10-18T16:22:47.159Z,21.70
2022-10-18T16:33:00.175Z,23.30
2022-10-18T16:43:13.233Z,23.40
2022-10-18T16:53:27.228Z,25.70
2022-10-18T17:03:40.242Z,24.30
2022-10-18T17:13:53.202Z,23.70
2022-10-18T17:24:08.171Z,25.40
2022-10-18T17:34:27.355Z,23.00
2022-10-18T17:44:40.260Z,24.20
2022-10-18T17:54:53.291Z,23.60
2022-10-18T18:05:06.188Z,29.00
2022-10-18T18:15:20.257Z,31.60
2022-10-18T18:25:33.285Z,31.00
2022-10-18T18:35:46.306Z,35.60
2022-10-18T18:46:06.331Z,32.10
2022-10-18T18:56:25.314Z,32.70
2022-10-18T19:06:46.321Z,33.20
2022-10-18T19:17:01.282Z,26.80
2022-10-18T19:27:22.246Z,28.70
2022-10-18T19:37:35.482Z,16.50
2022-10-18T19:47:55.263Z,17.30
2022-10-18T19:58:08.288Z,16.90
2022-10-18T20:08:21.295Z,13.80
2022-10-18T20:18:34.292Z,14.40
2022-10-18T20:28:47.367Z,15.00
2022-10-18T20:39:01.307Z,13.40
2022-10-18T20:49:22.314Z,11.10
2022-10-18T20:59:35.302Z,10.40
2022-10-18T21:09:48.343Z,9.60
2022-10-18T21:20:01.305Z,8.60
2022-10-18T21:30:14.429Z,10.10
2022-10-18T21:40:27.354Z,11.20
2022-10-18T21:50:46.352Z,12.40
2022-10-18T22:00:59.441Z,13.70
2022-10-18T22:11:12.380Z,10.50
2022-10-18T22:21:26.370Z,11.20
2022-10-18T22:31:41.394Z,10.10
2022-10-18T22:41:54.386Z,8.40
2022-10-18T22:52:07.416Z,10.00
2022-10-18T23:02:20.393Z,12.70
2022-10-18T23:12:32.700Z,10.90
2022-10-18T23:22:45.406Z,10.50
2022-10-18T23:32:58.435Z,12.80
2022-10-18T23:43:11.436Z,20.30
2022-10-18T23:53:24.464Z,23.40
